Time;durP1;ratioP1;P1;durP2;ratioP2;P2;SDS_P1;SDS_P2;PMS_P1;PMS_P2;Temp;Humidity;BMP_temperature;BMP_pressure;BME280_temperature;BME280_humidity;BME280_pressure;Samples;Min_cycle;Max_cycle;Signal;HPM_P1;HPM_P2
2021/06/07 00:01:21;;;;;;;;;;;;;;;16.29;52.54;101270.66;1641844;86;20137;-76
2021/06/07 00:03:49;;;;;;;;;;;;;;;16.30;52.62;101276.73;1648338;86;20138;-76
2021/06/07 00:06:16;;;;;;;;;;;;;;;16.24;52.63;101272.55;1642230;86;20134;-76
2021/06/07 00:08:42;;;;;;;;;;;;;;;16.21;52.77;101275.25;1653241;86;20097;-76
2021/06/07 00:11:09;;;;;;;;;;;;;;;16.17;52.74;101277.09;1647418;86;20106;-76
2021/06/07 00:13:38;;;;;;;;;;;;;;;16.15;52.80;101274.12;1653387;86;20129;-76
2021/06/07 00:16:05;;;;;;;;;;;;;;;16.10;52.86;101279.50;1648062;86;20134;-76
2021/06/07 00:18:32;;;;;;;;;;;;;;;16.08;52.91;101273.91;1647440;86;20097;-76
2021/06/07 00:21:07;;;;;;;;;;;;;;;16.04;53.03;101282.72;1652395;84;20097;-76
2021/06/07 00:23:34;;;;;;;;;;;;;;;16.01;53.09;101278.90;1670080;83;20125;-76
2021/06/07 00:26:00;;;;;;;;;;;;;;;15.95;53.11;101285.14;1692271;84;20127;-76
2021/06/07 00:28:27;;;;;;;;;;;;;;;15.92;53.24;101283.06;1670440;84;20109;-76
2021/06/07 00:30:53;;;;;;;;;;;;;;;15.89;53.26;101280.94;1681269;84;20137;-76
2021/06/07 00:33:19;;;;;;;;;;;;;;;15.86;53.33;101281.03;1671932;84;20126;-76
2021/06/07 00:35:45;;;;;;;;;;;;;;;15.86;53.41;101282.33;1661853;84;20189;-77
2021/06/07 00:38:11;;;;;;;;;;;;;;;15.86;53.49;101280.17;1673007;84;20095;-77
2021/06/07 00:40:38;;;;;;;;;;;;;;;15.85;53.51;101282.38;1676746;84;20215;-77
2021/06/07 00:43:04;;;;;;;;;;;;;;;15.83;53.55;101288.94;1675851;84;20109;-77
2021/06/07 00:45:33;;;;;;;;;;;;;;;15.82;53.53;101279.40;1686844;84;20102;-77
2021/06/07 00:48:01;;;;;;;;;;;;;;;15.78;53.59;101280.38;1673764;84;20135;-77
2021/06/07 00:50:36;;;;;;;;;;;;;;;15.74;53.68;101283.10;1666167;84;20122;-77
2021/06/07 00:53:04;;;;;;;;;;;;;;;15.70;53.73;101282.78;1602626;89;20168;-77
2021/06/07 00:55:35;;;;;;;;;;;;;;;15.65;53.85;101282.90;1570214;90;20165;-77
2021/06/07 00:58:02;;;;;;;;;;;;;;;15.62;53.86;101286.89;1577110;90;20113;-77
2021/06/07 01:00:28;;;;;;;;;;;;;;;15.59;53.98;101286.14;1533834;92;20105;-77
2021/06/07 01:02:56;;;;;;;;;;;;;;;15.56;54.02;101287.05;1535956;93;20166;-77
2021/06/07 01:05:22;;;;;;;;;;;;;;;15.55;54.09;101289.24;1539254;93;20131;-77
2021/06/07 01:07:49;;;;;;;;;;;;;;;15.52;54.17;101284.97;1544111;92;20134;-77
2021/06/07 01:10:17;;;;;;;;;;;;;;;15.51;54.21;101285.00;1535014;93;20170;-77
2021/06/07 01:12:43;;;;;;;;;;;;;;;15.51;54.25;101279.79;1536192;92;20767;-77
2021/06/07 01:15:11;;;;;;;;;;;;;;;15.51;54.32;101283.25;1531877;92;20155;-77
2021/06/07 01:17:38;;;;;;;;;;;;;;;15.48;54.29;101282.47;1533571;92;20125;-77
2021/06/07 01:20:06;;;;;;;;;;;;;;;15.44;54.34;101282.14;1517503;93;20098;-76
2021/06/07 01:22:33;;;;;;;;;;;;;;;15.42;54.45;101281.33;1590147;89;20172;-77
2021/06/07 01:25:00;;;;;;;;;;;;;;;15.39;54.48;101280.09;1603615;89;20170;-76
2021/06/07 01:27:26;;;;;;;;;;;;;;;15.35;54.56;101281.06;1582270;90;20152;-76
2021/06/07 01:29:52;;;;;;;;;;;;;;;15.33;54.59;101283.71;1595610;86;20130;-76
2021/06/07 01:32:18;;;;;;;;;;;;;;;15.32;54.78;101278.09;1628071;86;20114;-76
2021/06/07 01:34:47;;;;;;;;;;;;;;;15.33;54.78;101280.25;1644062;86;20124;-76
2021/06/07 01:37:13;;;;;;;;;;;;;;;15.32;54.83;101280.70;1660661;84;20133;-76
2021/06/07 01:39:39;;;;;;;;;;;;;;;15.31;54.84;101281.59;1638845;86;20164;-76
2021/06/07 01:42:06;;;;;;;;;;;;;;;15.30;54.86;101282.93;1681426;84;20113;-76
2021/06/07 01:44:32;;;;;;;;;;;;;;;15.25;54.90;101280.44;1670734;84;20113;-76
2021/06/07 01:47:00;;;;;;;;;;;;;;;15.23;54.93;101277.02;1660161;84;20129;-76
2021/06/07 01:49:26;;;;;;;;;;;;;;;15.22;55.12;101283.97;1665418;84;20129;-76
2021/06/07 01:51:52;;;;;;;;;;;;;;;15.23;55.12;101280.92;1665127;84;20147;-76
2021/06/07 01:54:18;;;;;;;;;;;;;;;15.19;55.12;101284.05;1665780;84;20110;-76
2021/06/07 01:56:44;;;;;;;;;;;;;;;15.16;55.20;101281.96;1673585;84;20122;-76
2021/06/07 01:59:11;;;;;;;;;;;;;;;15.13;55.23;101278.13;1659029;84;20134;-76
2021/06/07 02:01:37;;;;;;;;;;;;;;;15.09;55.28;101283.86;1673642;84;20125;-76
2021/06/07 02:04:03;;;;;;;;;;;;;;;15.09;55.45;101287.77;1686664;84;20107;-76
2021/06/07 02:06:29;;;;;;;;;;;;;;;15.10;55.45;101285.57;1669827;84;20097;-76
2021/06/07 02:08:55;;;;;;;;;;;;;;;15.10;55.46;101281.66;1675391;84;20099;-76
2021/06/07 02:11:27;;;;;;;;;;;;;;;15.10;55.50;101280.36;1669680;84;20107;-76
2021/06/07 02:13:57;;;;;;;;;;;;;;;15.09;55.44;101283.86;1664655;84;20130;-76
2021/06/07 02:16:25;;;;;;;;;;;;;;;15.07;55.45;101284.37;1672306;84;20130;-76
2021/06/07 02:18:52;;;;;;;;;;;;;;;15.05;55.48;101280.95;1673383;84;20515;-76
2021/06/07 02:21:21;;;;;;;;;;;;;;;15.04;55.56;101284.89;1650814;84;20101;-76
2021/06/07 02:23:48;;;;;;;;;;;;;;;15.01;55.55;101283.66;1643663;86;20118;-76
2021/06/07 02:26:14;;;;;;;;;;;;;;;14.96;55.63;101275.95;1648084;86;20114;-76
2021/06/07 02:28:46;;;;;;;;;;;;;;;14.93;55.64;101277.77;1655112;86;20130;-76
2021/06/07 02:31:12;;;;;;;;;;;;;;;14.89;55.76;101280.45;1643594;86;20127;-76
2021/06/07 02:33:38;;;;;;;;;;;;;;;14.82;55.80;101273.67;1649964;86;20156;-76
2021/06/07 02:36:04;;;;;;;;;;;;;;;14.79;55.93;101277.64;1646032;86;20110;-76
2021/06/07 02:38:30;;;;;;;;;;;;;;;14.78;56.00;101277.23;1654139;86;20413;-76
2021/06/07 02:40:56;;;;;;;;;;;;;;;14.81;56.17;101273.26;1652828;86;20095;-76
2021/06/07 02:43:23;;;;;;;;;;;;;;;14.83;56.15;101275.38;1651204;86;20118;-76
2021/06/07 02:45:49;;;;;;;;;;;;;;;14.85;56.16;101277.95;1646257;86;20107;-76
2021/06/07 02:48:15;;;;;;;;;;;;;;;14.86;56.12;101277.06;1640096;86;20134;-76
2021/06/07 02:50:44;;;;;;;;;;;;;;;14.86;56.19;101280.97;1643814;86;20124;-76
2021/06/07 02:53:10;;;;;;;;;;;;;;;14.86;56.16;101277.06;1646091;85;20110;-77
2021/06/07 02:55:38;;;;;;;;;;;;;;;14.85;56.19;101274.05;1652673;86;20104;-77
2021/06/07 02:58:05;;;;;;;;;;;;;;;14.83;56.29;101272.78;1647362;86;20174;-77
2021/06/07 03:00:43;;;;;;;;;;;;;;;14.82;56.30;101274.97;1653006;86;20126;-77
2021/06/07 03:03:10;;;;;;;;;;;;;;;14.83;56.38;101270.62;1642813;86;20110;-77
2021/06/07 03:05:37;;;;;;;;;;;;;;;14.84;56.44;101263.22;1651649;86;20126;-77
2021/06/07 03:08:04;;;;;;;;;;;;;;;14.80;56.50;101262.44;1633850;86;20129;-77
2021/06/07 03:10:31;;;;;;;;;;;;;;;14.81;56.59;101266.75;1649915;86;20122;-77
2021/06/07 03:12:57;;;;;;;;;;;;;;;14.84;56.62;101267.13;1635906;86;20097;-77
2021/06/07 03:15:24;;;;;;;;;;;;;;;14.87;56.72;101268.36;1643209;86;20109;-77
2021/06/07 03:17:51;;;;;;;;;;;;;;;14.91;56.77;101268.70;1652286;86;20122;-77
2021/06/07 03:20:19;;;;;;;;;;;;;;;14.95;56.84;101265.58;1658559;86;20090;-77
2021/06/07 03:22:45;;;;;;;;;;;;;;;14.98;56.86;101263.75;1653028;83;20118;-77
2021/06/07 03:25:11;;;;;;;;;;;;;;;15.03;56.85;101264.95;1647897;86;20107;-76
2021/06/07 03:27:38;;;;;;;;;;;;;;;15.04;56.99;101266.22;1655582;86;20087;-76
2021/06/07 03:30:06;;;;;;;;;;;;;;;15.11;57.00;101265.59;1657893;85;20753;-76
2021/06/07 03:32:32;;;;;;;;;;;;;;;15.17;57.03;101267.59;1644361;86;20114;-76
2021/06/07 03:34:58;;;;;;;;;;;;;;;15.24;57.05;101271.77;1645079;86;20144;-76
2021/06/07 03:37:25;;;;;;;;;;;;;;;15.31;57.12;101270.31;1642489;86;20172;-76
2021/06/07 03:39:51;;;;;;;;;;;;;;;15.37;57.15;101270.16;1645818;86;20129;-76
2021/06/07 03:42:17;;;;;;;;;;;;;;;15.45;57.20;101273.42;1653277;86;20160;-77
2021/06/07 03:44:43;;;;;;;;;;;;;;;15.52;57.21;101272.38;1643909;85;20113;-76
2021/06/07 03:47:10;;;;;;;;;;;;;;;15.59;57.28;101270.50;1636192;86;20109;-76
2021/06/07 03:49:36;;;;;;;;;;;;;;;15.66;57.32;101273.33;1641570;86;20090;-76
2021/06/07 03:52:02;;;;;;;;;;;;;;;15.76;57.39;101270.87;1642252;86;20122;-76
2021/06/07 03:54:28;;;;;;;;;;;;;;;15.87;57.47;101271.45;1634008;86;20105;-77
2021/06/07 03:56:54;;;;;;;;;;;;;;;15.98;57.50;101272.46;1646625;85;20211;-77
2021/06/07 03:59:20;;;;;;;;;;;;;;;16.09;57.50;101270.41;1634002;86;20134;-77
2021/06/07 04:01:47;;;;;;;;;;;;;;;16.22;57.54;101272.59;1642571;86;20246;-77
2021/06/07 04:04:13;;;;;;;;;;;;;;;16.35;57.59;101273.09;1642167;86;20490;-77
2021/06/07 04:06:39;;;;;;;;;;;;;;;16.59;57.78;101270.66;1644319;86;20224;-77
2021/06/07 04:09:05;;;;;;;;;;;;;;;16.98;57.92;101278.57;1642813;86;20180;-77
2021/06/07 04:11:31;;;;;;;;;;;;;;;17.41;57.87;101277.14;1642543;86;20126;-77
2021/06/07 04:13:58;;;;;;;;;;;;;;;17.74;57.40;101271.22;1643692;86;20097;-77
2021/06/07 04:16:24;;;;;;;;;;;;;;;17.87;57.25;101277.73;1635847;86;20602;-77
2021/06/07 04:18:50;;;;;;;;;;;;;;;17.98;57.15;101275.58;1631519;86;20162;-77
2021/06/07 04:21:16;;;;;;;;;;;;;;;18.07;57.10;101271.78;1643366;84;20140;-76
2021/06/07 04:23:42;;;;;;;;;;;;;;;18.10;57.00;101272.98;1665815;84;21064;-74
2021/06/07 04:26:08;;;;;;;;;;;;;;;18.13;56.98;101275.03;1668088;84;20192;-75
2021/06/07 04:28:35;;;;;;;;;;;;;;;18.12;57.00;101269.84;1668284;84;20109;-75
2021/06/07 04:31:01;;;;;;;;;;;;;;;18.11;56.90;101271.61;1668355;84;20110;-75
2021/06/07 04:33:28;;;;;;;;;;;;;;;18.11;57.05;101270.76;1667517;84;20105;-75
2021/06/07 04:35:54;;;;;;;;;;;;;;;18.17;57.00;101269.23;1663734;85;20113;-75
2021/06/07 04:38:21;;;;;;;;;;;;;;;18.22;57.07;101267.72;1669025;84;20133;-75
2021/06/07 04:40:47;;;;;;;;;;;;;;;18.30;57.15;101273.06;1668539;84;20097;-75
2021/06/07 04:43:14;;;;;;;;;;;;;;;18.38;57.08;101267.09;1674217;84;20155;-76
2021/06/07 04:45:43;;;;;;;;;;;;;;;18.52;57.16;101271.34;1672527;84;20131;-75
2021/06/07 04:48:10;;;;;;;;;;;;;;;18.66;57.11;101264.75;1676437;84;20121;-75
2021/06/07 04:50:36;;;;;;;;;;;;;;;18.77;56.99;101266.01;1668331;84;20113;-75
2021/06/07 04:53:03;;;;;;;;;;;;;;;18.88;56.91;101270.83;1661998;84;20091;-75
2021/06/07 04:55:36;;;;;;;;;;;;;;;18.98;56.94;101268.69;1661496;84;20097;-75
2021/06/07 04:58:17;;;;;;;;;;;;;;;19.21;56.93;101267.75;1671886;84;20178;-75
2021/06/07 05:00:46;;;;;;;;;;;;;;;19.54;57.05;101272.05;1654372;84;20177;-75
2021/06/07 05:03:12;;;;;;;;;;;;;;;20.16;57.29;101270.58;1659741;84;20279;-75
2021/06/07 05:05:38;;;;;;;;;;;;;;;20.77;56.95;101265.11;1665184;84;20299;-75
2021/06/07 05:08:05;;;;;;;;;;;;;;;21.36;56.66;101266.56;1663909;84;20310;-75
2021/06/07 05:10:31;;;;;;;;;;;;;;;21.65;55.74;101267.71;1661790;84;20213;-75
2021/06/07 05:12:57;;;;;;;;;;;;;;;21.63;55.63;101264.30;1663019;84;20471;-76
2021/06/07 05:15:23;;;;;;;;;;;;;;;21.89;55.94;101266.87;1669190;84;20475;-76
2021/06/07 05:17:50;;;;;;;;;;;;;;;22.27;55.89;101267.03;1657802;84;20227;-76
2021/06/07 05:20:22;;;;;;;;;;;;;;;22.70;55.59;101265.95;1670502;84;20107;-76
2021/06/07 05:22:49;;;;;;;;;;;;;;;23.20;55.54;101270.98;1666499;84;20125;-76
2021/06/07 05:25:16;;;;;;;;;;;;;;;23.74;55.23;101273.95;1666285;84;20089;-75
2021/06/07 05:27:43;;;;;;;;;;;;;;;24.31;54.86;101272.16;1683465;84;20099;-75
2021/06/07 05:30:10;;;;;;;;;;;;;;;24.86;54.66;101271.25;1648454;86;20113;-75
2021/06/07 05:32:36;;;;;;;;;;;;;;;25.44;54.44;101270.52;1670679;84;20417;-75
2021/06/07 05:35:05;;;;;;;;;;;;;;;25.88;54.05;101276.74;1669398;84;20120;-76
2021/06/07 05:37:31;;;;;;;;;;;;;;;26.25;54.37;101276.30;1670995;84;20127;-76
2021/06/07 05:39:57;;;;;;;;;;;;;;;26.63;54.00;101273.55;1670117;84;20828;-76
2021/06/07 05:42:23;;;;;;;;;;;;;;;27.19;53.60;101273.35;1663247;84;20175;-75
2021/06/07 05:44:49;;;;;;;;;;;;;;;27.54;53.53;101279.13;1661803;84;20431;-75
2021/06/07 05:47:15;;;;;;;;;;;;;;;27.84;53.30;101286.55;1653720;84;20709;-75
2021/06/07 05:49:41;;;;;;;;;;;;;;;28.13;53.38;101283.77;1664766;84;20191;-75
2021/06/07 05:52:09;;;;;;;;;;;;;;;28.57;53.21;101288.22;1663181;84;20197;-75
2021/06/07 05:54:37;;;;;;;;;;;;;;;29.08;52.60;101286.26;1665168;84;20177;-76
2021/06/07 05:57:05;;;;;;;;;;;;;;;29.39;52.51;101283.66;1658423;84;20233;-76
2021/06/07 05:59:32;;;;;;;;;;;;;;;29.43;52.66;101288.64;1667625;84;20124;-76
2021/06/07 06:01:58;;;;;;;;;;;;;;;29.77;52.19;101291.06;1634050;86;20200;-76
2021/06/07 06:04:24;;;;;;;;;;;;;;;30.34;51.95;101289.14;1630144;86;20206;-76
2021/06/07 06:06:51;;;;;;;;;;;;;;;30.43;51.67;101288.82;1637127;86;20206;-76
2021/06/07 06:09:17;;;;;;;;;;;;;;;30.37;51.19;101292.88;1639778;86;20214;-76
2021/06/07 06:11:43;;;;;;;;;;;;;;;30.79;51.15;101290.02;1624080;87;20138;-76
2021/06/07 06:14:09;;;;;;;;;;;;;;;31.38;50.66;101295.73;1630707;86;20177;-76
2021/06/07 06:16:36;;;;;;;;;;;;;;;31.59;50.20;101293.72;1637888;86;20450;-77
2021/06/07 06:19:02;;;;;;;;;;;;;;;31.79;50.40;101294.02;1607560;88;20197;-77
2021/06/07 06:21:28;;;;;;;;;;;;;;;31.85;49.97;101289.44;1606988;89;20242;-77
2021/06/07 06:23:55;;;;;;;;;;;;;;;32.10;49.58;101291.95;1598445;89;20200;-76
2021/06/07 06:26:22;;;;;;;;;;;;;;;32.66;49.14;101292.77;1630348;86;20183;-77
2021/06/07 06:28:48;;;;;;;;;;;;;;;33.06;48.58;101290.50;1631836;86;20215;-76
2021/06/07 06:31:15;;;;;;;;;;;;;;;33.36;47.88;101297.28;1635375;86;20230;-76
2021/06/07 06:33:42;;;;;;;;;;;;;;;33.41;47.68;101292.30;1632980;86;20600;-77
2021/06/07 06:36:08;;;;;;;;;;;;;;;33.34;47.37;101295.76;1638624;86;20109;-77
2021/06/07 06:38:35;;;;;;;;;;;;;;;33.26;46.64;101297.03;1671127;84;20097;-77
2021/06/07 06:41:03;;;;;;;;;;;;;;;33.12;46.41;101292.56;1633769;86;20100;-78
2021/06/07 06:43:29;;;;;;;;;;;;;;;32.74;45.88;101297.72;1648113;86;20403;-78
2021/06/07 06:45:55;;;;;;;;;;;;;;;32.56;45.82;101294.17;1648378;86;20098;-78
2021/06/07 06:48:21;;;;;;;;;;;;;;;32.60;45.38;101291.54;1641221;85;20164;-78
2021/06/07 06:50:47;;;;;;;;;;;;;;;32.70;45.08;101295.50;1642961;85;20159;-78
2021/06/07 06:53:16;;;;;;;;;;;;;;;32.60;44.55;101299.58;1639006;86;20130;-78
2021/06/07 06:55:44;;;;;;;;;;;;;;;32.62;44.96;101302.95;1639953;86;20090;-77
2021/06/07 06:58:10;;;;;;;;;;;;;;;32.50;44.30;101300.13;1648198;86;20132;-77
2021/06/07 07:00:37;;;;;;;;;;;;;;;32.51;44.13;101301.81;1677740;84;20144;-77
2021/06/07 07:03:09;;;;;;;;;;;;;;;32.32;43.57;101305.44;1670482;84;20137;-78
2021/06/07 07:05:35;;;;;;;;;;;;;;;32.40;43.46;101306.88;1664155;84;20438;-78
2021/06/07 07:08:01;;;;;;;;;;;;;;;32.37;43.08;101300.98;1672604;84;20149;-78
2021/06/07 07:10:28;;;;;;;;;;;;;;;32.28;43.18;101305.89;1673189;84;20122;-78
2021/06/07 07:12:54;;;;;;;;;;;;;;;32.22;43.00;101308.19;1637257;86;20112;-78
2021/06/07 07:15:20;;;;;;;;;;;;;;;32.53;42.75;101306.53;1656254;86;20222;-78
2021/06/07 07:17:47;;;;;;;;;;;;;;;32.65;42.80;101310.68;1637716;85;20164;-78
2021/06/07 07:20:13;;;;;;;;;;;;;;;32.70;42.45;101315.09;1654554;84;20129;-78
2021/06/07 07:22:39;;;;;;;;;;;;;;;32.72;41.88;101319.80;1666225;84;20121;-78
2021/06/07 07:25:06;;;;;;;;;;;;;;;32.83;41.88;101315.56;1669322;84;20113;-78
2021/06/07 07:27:34;;;;;;;;;;;;;;;33.04;41.60;101312.59;1668416;84;20441;-78
2021/06/07 07:30:01;;;;;;;;;;;;;;;33.19;41.38;101317.76;1664683;84;20121;-78
2021/06/07 07:32:28;;;;;;;;;;;;;;;33.36;41.40;101316.05;1664841;84;20136;-78
2021/06/07 07:34:54;;;;;;;;;;;;;;;33.50;41.11;101314.66;1656861;84;20128;-78
2021/06/07 07:37:21;;;;;;;;;;;;;;;33.79;41.15;101313.89;1665710;84;20152;-78
2021/06/07 07:39:48;;;;;;;;;;;;;;;33.98;40.88;101311.45;1670271;84;20220;-78
2021/06/07 07:42:14;;;;;;;;;;;;;;;34.14;40.67;101312.88;1649215;86;20157;-78
2021/06/07 07:44:40;;;;;;;;;;;;;;;34.27;40.20;101315.11;1623532;87;20289;-78
2021/06/07 07:47:07;;;;;;;;;;;;;;;34.26;39.70;101313.94;1632367;86;20203;-78
2021/06/07 07:49:34;;;;;;;;;;;;;;;34.19;39.71;101307.86;1627638;87;20190;-78
2021/06/07 07:52:02;;;;;;;;;;;;;;;34.07;39.36;101309.65;1622716;86;20212;-78
2021/06/07 07:54:28;;;;;;;;;;;;;;;34.09;39.03;101310.33;1627038;86;20107;-78
2021/06/07 07:56:54;;;;;;;;;;;;;;;34.18;38.91;101306.19;1628380;86;20164;-78
2021/06/07 07:59:20;;;;;;;;;;;;;;;34.20;38.38;101305.52;1642384;85;20092;-78
2021/06/07 08:01:46;;;;;;;;;;;;;;;34.01;38.33;101310.29;1636902;86;20232;-78
2021/06/07 08:04:12;;;;;;;;;;;;;;;34.00;38.41;101309.45;1638565;86;20204;-78
2021/06/07 08:06:39;;;;;;;;;;;;;;;33.72;38.05;101306.09;1638149;86;20176;-78
2021/06/07 08:09:05;;;;;;;;;;;;;;;33.60;38.22;101304.67;1634489;86;20462;-78
2021/06/07 08:11:31;;;;;;;;;;;;;;;33.50;37.86;101304.77;1642981;86;20106;-78
2021/06/07 08:13:57;;;;;;;;;;;;;;;33.13;37.60;101306.31;1639042;86;20144;-78
2021/06/07 08:16:24;;;;;;;;;;;;;;;33.01;37.73;101302.17;1642273;86;20732;-78
2021/06/07 08:18:50;;;;;;;;;;;;;;;33.14;37.54;101303.97;1640073;86;20109;-77
2021/06/07 08:21:16;;;;;;;;;;;;;;;33.06;37.06;101303.90;1636543;86;20812;-77
2021/06/07 08:23:42;;;;;;;;;;;;;;;32.87;36.92;101302.21;1639498;86;20165;-77
2021/06/07 08:26:08;;;;;;;;;;;;;;;32.64;36.96;101303.64;1632640;86;20094;-77
2021/06/07 08:28:34;;;;;;;;;;;;;;;32.43;36.53;101303.91;1633395;86;20204;-77
2021/06/07 08:31:00;;;;;;;;;;;;;;;32.27;36.61;101307.72;1625919;86;20824;-77
2021/06/07 08:33:26;;;;;;;;;;;;;;;32.10;36.65;101299.97;1631232;86;20335;-76
2021/06/07 08:35:52;;;;;;;;;;;;;;;31.93;36.48;101292.22;1665965;85;20180;-76
2021/06/07 08:38:19;;;;;;;;;;;;;;;31.80;36.42;101294.37;1665140;85;20165;-76
2021/06/07 08:40:46;;;;;;;;;;;;;;;31.70;36.18;101300.77;1637070;86;20103;-77
2021/06/07 08:43:13;;;;;;;;;;;;;;;31.54;35.96;101300.00;1672502;84;20097;-77
2021/06/07 08:45:39;;;;;;;;;;;;;;;31.47;36.01;101302.39;1670206;84;20165;-77
2021/06/07 08:48:06;;;;;;;;;;;;;;;31.34;35.68;101305.86;1663557;84;20798;-77
2021/06/07 08:50:33;;;;;;;;;;;;;;;31.11;35.52;101305.80;1664445;85;20113;-77
2021/06/07 08:52:59;;;;;;;;;;;;;;;30.87;35.36;101295.52;1637488;86;20461;-77
2021/06/07 08:55:28;;;;;;;;;;;;;;;30.97;35.66;101299.03;1666758;85;20109;-77
2021/06/07 08:57:55;;;;;;;;;;;;;;;31.45;35.44;101299.02;1646374;85;20111;-77
2021/06/07 09:00:24;;;;;;;;;;;;;;;32.10;35.30;101303.14;1664509;84;20109;-77
2021/06/07 09:03:11;;;;;;;;;;;;;;;32.46;35.27;101299.59;1665068;84;20098;-77
2021/06/07 09:05:38;;;;;;;;;;;;;;;32.75;35.02;101303.92;1666784;85;20105;-77
2021/06/07 09:08:07;;;;;;;;;;;;;;;33.15;35.13;101307.50;1667318;84;20438;-77
2021/06/07 09:10:42;;;;;;;;;;;;;;;33.34;34.69;101309.16;1674029;83;20559;-77
2021/06/07 09:13:10;;;;;;;;;;;;;;;33.59;34.69;101304.83;1655971;84;689211;-77
2021/06/07 09:15:42;;;;;;;;;;;;;;;33.50;34.69;101302.59;1668716;84;20134;-77
2021/06/07 09:18:11;;;;;;;;;;;;;;;33.51;34.66;101304.27;1661878;86;20101;-77
2021/06/07 09:20:39;;;;;;;;;;;;;;;33.43;34.58;101299.69;1652913;84;20160;-77
2021/06/07 09:23:12;;;;;;;;;;;;;;;33.28;34.68;101300.41;1664847;84;20528;-77
2021/06/07 09:25:46;;;;;;;;;;;;;;;32.85;34.33;101303.36;1669435;84;20109;-76
2021/06/07 09:28:23;;;;;;;;;;;;;;;32.27;34.21;101301.52;1665434;84;20528;-76
2021/06/07 09:30:52;;;;;;;;;;;;;;;31.57;34.41;101300.55;1669220;84;20527;-76
2021/06/07 09:33:39;;;;;;;;;;;;;;;31.09;34.20;101298.41;1638432;86;20458;-76
2021/06/07 09:36:11;;;;;;;;;;;;;;;30.66;34.10;101296.14;1610719;86;20102;-76
2021/06/07 09:38:53;;;;;;;;;;;;;;;30.20;33.65;101301.03;1634503;86;20443;-76
2021/06/07 09:41:19;;;;;;;;;;;;;;;29.83;33.59;101298.05;1576733;88;20119;-76
2021/06/07 09:43:51;;;;;;;;;;;;;;;29.41;33.33;101297.70;1625845;86;20565;-76
2021/06/07 09:46:24;;;;;;;;;;;;;;;29.15;33.59;101294.07;1604595;87;20590;-76
2021/06/07 09:48:50;;;;;;;;;;;;;;;29.05;33.48;101285.67;1644461;86;20396;-76
2021/06/07 09:51:19;;;;;;;;;;;;;;;28.77;33.16;101297.70;1635668;85;20446;-76
2021/06/07 09:53:48;;;;;;;;;;;;;;;28.53;33.24;101297.42;1638021;86;20572;-76
2021/06/07 09:56:15;;;;;;;;;;;;;;;28.36;33.30;101297.92;1633200;86;20094;-76
2021/06/07 09:58:43;;;;;;;;;;;;;;;28.24;33.38;101293.09;1638077;86;20145;-76
2021/06/07 10:01:13;;;;;;;;;;;;;;;28.18;33.38;101294.03;1633819;86;20098;-76
2021/06/07 10:03:42;;;;;;;;;;;;;;;28.17;33.50;101290.53;1643936;86;20142;-76
2021/06/07 10:06:21;;;;;;;;;;;;;;;28.25;33.52;101289.47;1643721;86;20139;-76
2021/06/07 10:08:57;;;;;;;;;;;;;;;28.14;33.13;101298.75;1642516;86;20585;-76
2021/06/07 10:11:31;;;;;;;;;;;;;;;27.98;33.28;101292.48;1643282;86;20446;-76
2021/06/07 10:14:10;;;;;;;;;;;;;;;27.92;33.51;101291.64;1641926;86;20134;-76
2021/06/07 10:16:38;;;;;;;;;;;;;;;27.99;33.42;101288.02;1595661;87;20442;-76
2021/06/07 10:19:07;;;;;;;;;;;;;;;27.91;33.33;101287.29;1592120;88;20513;-76
2021/06/07 10:21:33;;;;;;;;;;;;;;;27.88;33.31;101295.50;1608413;87;21913;-76
2021/06/07 10:24:00;;;;;;;;;;;;;;;27.86;33.50;101288.13;1617325;87;20126;-75
2021/06/07 10:26:26;;;;;;;;;;;;;;;27.87;33.53;101295.14;1626993;87;20108;-75
2021/06/07 10:28:54;;;;;;;;;;;;;;;27.85;33.36;101290.91;1592433;88;20156;-75
2021/06/07 10:31:22;;;;;;;;;;;;;;;27.79;33.55;101288.72;1618090;87;20422;-75
2021/06/07 10:34:05;;;;;;;;;;;;;;;27.83;33.54;101291.50;1616607;87;20093;-76
2021/06/07 10:36:37;;;;;;;;;;;;;;;27.86;33.54;101288.13;1616952;87;20093;-76
2021/06/07 10:39:19;;;;;;;;;;;;;;;27.88;33.48;101288.01;1617764;87;20105;-76
2021/06/07 10:41:48;;;;;;;;;;;;;;;27.90;33.58;101284.75;1572740;89;20552;-76
2021/06/07 10:44:14;;;;;;;;;;;;;;;27.87;33.46;101286.31;1570104;90;20614;-76
2021/06/07 10:46:43;;;;;;;;;;;;;;;27.86;33.67;101288.13;1551111;91;20588;-76
2021/06/07 10:49:42;;;;;;;;;;;;;;;27.84;33.42;101279.91;1566392;90;20633;-76
2021/06/07 10:52:14;;;;;;;;;;;;;;;27.77;33.56;101282.67;1529701;90;20575;-76
2021/06/07 10:54:49;;;;;;;;;;;;;;;27.74;33.56;101273.61;1563508;90;20118;-76
2021/06/07 10:57:35;;;;;;;;;;;;;;;27.79;33.50;101278.09;1564228;90;20187;-76
2021/06/07 11:00:10;;;;;;;;;;;;;;;27.82;33.76;101277.37;1566795;90;20146;-76
2021/06/07 11:02:39;;;;;;;;;;;;;;;27.83;33.61;101274.23;1563466;90;20455;-76
2021/06/07 11:05:15;;;;;;;;;;;;;;;27.85;33.63;101271.81;1567333;90;20537;-76
2021/06/07 11:07:43;;;;;;;;;;;;;;;27.88;33.74;101271.58;1565911;90;20544;-76
2021/06/07 11:10:25;;;;;;;;;;;;;;;27.95;33.52;101269.28;1560338;90;20572;-76
2021/06/07 11:12:58;;;;;;;;;;;;;;;27.96;33.69;101273.64;1568542;90;20454;-76
2021/06/07 11:15:27;;;;;;;;;;;;;;;27.99;33.57;101266.75;1565642;90;20579;-76
2021/06/07 11:18:13;;;;;;;;;;;;;;;28.00;33.59;101270.62;1565172;90;20106;-76
2021/06/07 11:20:39;;;;;;;;;;;;;;;27.90;33.54;101263.48;1609861;87;20532;-76
2021/06/07 11:23:10;;;;;;;;;;;;;;;27.84;33.68;101259.97;1614279;87;20492;-76
2021/06/07 11:25:44;;;;;;;;;;;;;;;27.95;33.90;101266.14;1620597;87;21167;-76
2021/06/07 11:28:42;;;;;;;;;;;;;;;28.09;33.70;101259.70;1613512;87;20576;-76
2021/06/07 11:31:21;;;;;;;;;;;;;;;28.11;33.72;101255.59;1617438;87;20440;-76
2021/06/07 11:33:56;;;;;;;;;;;;;;;28.10;33.70;101260.06;1621354;87;20597;-76
2021/06/07 11:36:43;;;;;;;;;;;;;;;28.05;33.65;101262.28;1616456;87;20513;-76
2021/06/07 11:39:17;;;;;;;;;;;;;;;28.01;33.89;101256.84;1617190;87;20138;-76
2021/06/07 11:41:46;;;;;;;;;;;;;;;28.15;33.83;101260.55;1626739;87;20122;-76
2021/06/07 11:44:13;;;;;;;;;;;;;;;28.26;33.73;101257.91;1631847;87;20542;-76
2021/06/07 11:46:43;;;;;;;;;;;;;;;28.29;33.77;101252.84;1612886;87;20120;-76
2021/06/07 11:49:14;;;;;;;;;;;;;;;28.29;33.55;101249.69;1616857;87;20582;-75
2021/06/07 11:51:43;;;;;;;;;;;;;;;28.28;33.68;101251.98;1617280;87;20145;-76
2021/06/07 11:54:30;;;;;;;;;;;;;;;28.28;33.58;101249.81;1617885;87;20510;-76
2021/06/07 11:57:04;;;;;;;;;;;;;;;28.28;33.69;101244.01;1619142;87;20094;-76
2021/06/07 11:59:35;;;;;;;;;;;;;;;28.32;33.74;101243.28;1622584;87;20133;-76
2021/06/07 12:02:13;;;;;;;;;;;;;;;28.31;33.57;101240.26;1617251;87;20146;-76
2021/06/07 12:04:40;;;;;;;;;;;;;;;28.22;33.80;101244.50;1617387;87;20114;-76
2021/06/07 12:07:08;;;;;;;;;;;;;;;28.19;33.67;101244.71;1618178;88;20094;-76
2021/06/07 12:09:36;;;;;;;;;;;;;;;28.18;33.51;101235.52;1622796;87;20111;-76
2021/06/07 12:12:03;;;;;;;;;;;;;;;28.13;33.55;101236.38;1630088;87;20104;-76
2021/06/07 12:14:32;;;;;;;;;;;;;;;28.10;33.65;101233.48;1618672;87;20093;-76
2021/06/07 12:17:07;;;;;;;;;;;;;;;28.10;33.59;101235.29;1626981;87;20446;-76
2021/06/07 12:19:40;;;;;;;;;;;;;;;28.04;33.61;101237.98;1615638;86;20130;-76
2021/06/07 12:22:09;;;;;;;;;;;;;;;27.94;33.61;101230.37;1619163;87;20131;-76
2021/06/07 12:24:35;;;;;;;;;;;;;;;27.78;33.64;101233.87;1618588;87;20117;-76
2021/06/07 12:29:47;;;;;;;;;;;;;;;27.78;33.79;101229.89;1619137;87;20117;-76
2021/06/07 12:32:19;;;;;;;;;;;;;;;27.89;33.76;101225.91;1624563;87;20124;-77
2021/06/07 12:35:14;;;;;;;;;;;;;;;27.88;33.66;101222.39;1625341;87;20118;-77
2021/06/07 12:37:52;;;;;;;;;;;;;;;27.83;33.78;101215.75;1598922;87;317694;-76
2021/06/07 12:40:30;;;;;;;;;;;;;;;27.81;33.96;101219.02;1617421;87;20139;-76
2021/06/07 12:43:03;;;;;;;;;;;;;;;27.74;34.23;101221.30;1613472;87;20108;-76
2021/06/07 12:45:32;;;;;;;;;;;;;;;27.71;33.98;101230.84;1618907;87;20126;-76